Viewfield, South Dakota
Current Conditions -  °F | °C
As of 4:52 PM on Friday 24 Oct 2014 (Local Time) from KRAP Reporting Station
Clear Clear  
Wind Chill: 67°   Ceiling: Unl
Heat Index: 67°   Visibility: 10mi
Dew Point: 39°   Wind: 10mph
Humidity: 36%   Direction: 10°N
Pressure: 30.04"   Gusts: NA
Location:  43.9974°N, 102.716°W
Report Text: KRAP 242252Z 01009KT 10SM CLR 19/04 A3004 RMK AO2 SLP167 T01940039
Loading
Personal Weather Stations






























Interactive Weather Map
Tropical Storm Tracking
New forecast layout! Learn more

10-Day Weather Forecast

Advertisements
Track Severe Weather on mobile